createdAt,value
2023-03-28T02:30:27.947Z,1.90
2023-03-28T02:34:01.577Z,1.70
2023-03-28T02:37:41.931Z,1.50
2023-03-28T02:41:18.138Z,1.60
2023-03-28T02:44:35.089Z,1.50
2023-03-28T02:47:55.713Z,1.20
2023-03-28T02:51:34.394Z,1.30
2023-03-28T02:54:59.359Z,1.30
2023-03-28T02:58:16.830Z,1.70
2023-03-28T03:01:06.703Z,1.20
2023-03-28T03:03:49.786Z,1.60
2023-03-28T03:06:36.489Z,1.80
2023-03-28T03:09:36.369Z,1.90
2023-03-28T03:12:14.779Z,2.10
2023-03-28T03:15:08.376Z,2.20
2023-03-28T03:18:20.985Z,2.00
2023-03-28T03:20:56.251Z,2.10
2023-03-28T03:23:42.067Z,2.40
2023-03-28T03:26:25.046Z,2.80
2023-03-28T03:29:25.146Z,2.10
2023-03-28T03:31:53.030Z,1.90
2023-03-28T03:34:43.714Z,1.80
2023-03-28T03:37:21.519Z,2.50
2023-03-28T03:40:10.997Z,2.40
2023-03-28T03:42:41.762Z,2.50
2023-03-28T03:45:12.597Z,2.60
2023-03-28T03:47:51.840Z,2.60
2023-03-28T03:50:38.344Z,2.80
2023-03-28T03:53:13.332Z,2.40
2023-03-28T03:55:59.865Z,2.40
2023-03-28T03:58:31.085Z,1.60
2023-03-28T04:01:16.611Z,1.50
2023-03-28T04:03:47.768Z,2.70
2023-03-28T04:06:34.320Z,3.10
2023-03-28T04:09:13.922Z,3.00
2023-03-28T04:11:59.823Z,3.00
2023-03-28T04:14:27.391Z,2.80
2023-03-28T04:17:22.185Z,2.00
2023-03-28T04:19:53.998Z,2.30
2023-03-28T04:24:58.708Z,2.10
2023-03-28T04:27:50.467Z,2.40
2023-03-28T04:30:31.517Z,2.30
2023-03-28T04:33:33.417Z,2.20
2023-03-28T04:36:02.823Z,2.30
2023-03-28T04:38:53.965Z,2.20
2023-03-28T04:41:45.647Z,1.90
2023-03-28T04:45:08.768Z,2.50
2023-03-28T04:47:43.339Z,2.60
2023-03-28T04:51:11.141Z,2.40
2023-03-28T04:53:41.600Z,3.00
2023-03-28T04:56:31.784Z,3.10
2023-03-28T04:58:59.950Z,1.90
2023-03-28T05:01:29.738Z,1.70
2023-03-28T05:04:28.589Z,2.60
2023-03-28T05:07:07.558Z,2.60
2023-03-28T05:10:05.701Z,2.40
2023-03-28T05:12:58.724Z,2.40
2023-03-28T05:15:34.666Z,2.00
2023-03-28T05:18:36.328Z,2.10
2023-03-28T05:21:08.160Z,2.20
2023-03-28T05:23:39.816Z,2.40
2023-03-28T05:26:48.576Z,2.80
2023-03-28T05:29:15.953Z,1.90
2023-03-28T05:31:46.924Z,1.80
2023-03-28T05:34:29.692Z,2.30
2023-03-28T05:36:58.939Z,2.20
2023-03-28T05:39:53.979Z,2.30
2023-03-28T05:42:23.296Z,2.10
2023-03-28T05:45:22.157Z,2.10
2023-03-28T05:48:50.788Z,2.30
2023-03-28T06:11:33.949Z,2.00
2023-03-28T06:14:21.500Z,2.00
2023-03-28T06:16:48.868Z,1.80
2023-03-28T06:19:18.729Z,1.60
2023-03-28T06:21:50.926Z,1.60
2023-03-28T06:24:17.982Z,1.90
2023-03-28T06:26:45.823Z,1.70
2023-03-28T06:29:15.782Z,1.50
2023-03-28T06:31:44.374Z,2.20
2023-03-28T06:34:12.616Z,2.20
2023-03-28T06:37:01.677Z,1.80
2023-03-28T06:39:42.744Z,1.90
2023-03-28T06:42:10.282Z,2.30
2023-03-28T06:44:44.778Z,1.90
2023-03-28T06:47:29.052Z,2.30
2023-03-28T06:49:55.843Z,1.60
2023-03-28T06:52:44.386Z,1.30
2023-03-28T06:55:11.669Z,2.00
2023-03-28T06:57:38.601Z,2.50
2023-03-28T07:00:22.972Z,2.30
2023-03-28T07:03:22.406Z,1.60
2023-03-28T07:05:50.123Z,1.40
2023-03-28T07:08:16.983Z,1.80
2023-03-28T07:10:44.246Z,2.10
2023-03-28T07:13:11.540Z,2.20
2023-03-28T07:15:53.851Z,1.70
2023-03-28T07:18:20.857Z,1.50
2023-03-28T07:20:57.978Z,1.80
2023-03-28T07:25:57.430Z,1.90
2023-03-28T07:28:24.369Z,2.00
2023-03-28T07:30:54.004Z,2.00
2023-03-28T07:33:26.665Z,2.10
2023-03-28T07:36:11.425Z,1.30
2023-03-28T07:38:38.789Z,2.20
2023-03-28T07:41:07.443Z,2.10
2023-03-28T07:43:35.447Z,1.70
2023-03-28T07:46:05.813Z,1.70
2023-03-28T07:48:40.891Z,2.20
2023-03-28T07:51:09.498Z,1.50
2023-03-28T07:53:37.554Z,1.80
2023-03-28T07:56:11.111Z,1.80
2023-03-28T07:58:52.593Z,2.40
2023-03-28T08:01:22.379Z,3.20
2023-03-28T08:03:53.210Z,2.90
2023-03-28T08:06:31.775Z,2.40
2023-03-28T08:09:00.600Z,1.60
2023-03-28T08:11:48.213Z,1.90
2023-03-28T08:14:17.739Z,1.90
2023-03-28T08:16:46.713Z,1.80
2023-03-28T08:19:13.846Z,2.20
2023-03-28T08:22:02.225Z,2.00
2023-03-28T08:24:35.750Z,1.60
2023-03-28T08:27:20.590Z,1.10
2023-03-28T08:29:50.065Z,2.10
2023-03-28T08:32:17.084Z,2.20
2023-03-28T08:34:44.110Z,2.30
2023-03-28T08:37:14.687Z,2.00
2023-03-28T08:39:43.508Z,1.80
2023-03-28T08:42:11.205Z,2.20
2023-03-28T08:45:21.159Z,1.80
2023-03-28T08:47:53.670Z,2.00
2023-03-28T08:50:33.549Z,2.20
2023-03-28T08:53:02.501Z,1.20
2023-03-28T08:55:51.144Z,1.70
2023-03-28T08:58:20.906Z,2.20
2023-03-28T09:00:50.066Z,1.50
2023-03-28T09:03:22.630Z,1.20
2023-03-28T09:06:01.734Z,1.30
2023-03-28T09:08:51.284Z,1.20
2023-03-28T09:11:40.101Z,1.80
2023-03-28T09:14:32.479Z,1.60
2023-03-28T09:17:20.424Z,1.80
2023-03-28T09:20:18.980Z,1.30
2023-03-28T09:23:19.181Z,1.20
2023-03-28T09:26:13.787Z,1.60
2023-03-28T09:28:51.807Z,1.70
2023-03-28T09:31:27.080Z,2.30
2023-03-28T09:34:03.043Z,1.70
2023-03-28T09:36:50.267Z,1.40
2023-03-28T09:39:49.050Z,1.60
2023-03-28T09:43:07.258Z,1.60
2023-03-28T09:45:57.914Z,1.30
2023-03-28T09:48:48.401Z,1.80
2023-03-28T09:51:19.117Z,1.80
2023-03-28T09:53:52.117Z,1.90
2023-03-28T09:56:31.589Z,1.90
2023-03-28T09:59:28.920Z,1.70
2023-03-28T10:02:02.469Z,2.00
2023-03-28T10:04:38.016Z,2.10
2023-03-28T10:07:41.980Z,1.50
2023-03-28T10:10:26.124Z,2.60
2023-03-28T10:13:02.395Z,1.70
2023-03-28T10:15:50.563Z,2.00
2023-03-28T10:18:40.096Z,2.10
2023-03-28T10:21:39.340Z,2.00
2023-03-28T10:24:16.401Z,1.80
2023-03-28T10:26:48.656Z,1.20
2023-03-28T10:29:16.077Z,1.30
2023-03-28T10:31:54.953Z,1.50
2023-03-28T10:35:26.268Z,1.50
2023-03-28T10:38:05.064Z,2.10
2023-03-28T10:40:41.322Z,1.80
2023-03-28T10:43:13.263Z,1.80
2023-03-28T10:45:46.476Z,2.10
2023-03-28T10:48:29.996Z,1.80
2023-03-28T10:54:16.625Z,1.50
2023-03-28T10:57:04.743Z,1.70
2023-03-28T10:59:46.527Z,2.10
2023-03-28T11:02:27.680Z,1.50
2023-03-28T11:05:12.134Z,1.70
2023-03-28T11:07:51.315Z,2.60
2023-03-28T11:10:42.424Z,2.00
2023-03-28T11:13:45.838Z,1.80
2023-03-28T11:16:32.674Z,1.50
2023-03-28T11:19:44.836Z,1.80
2023-03-28T11:22:28.406Z,1.70
2023-03-28T11:25:13.886Z,1.70
2023-03-28T11:28:28.220Z,1.50
2023-03-28T11:31:03.785Z,2.70
2023-03-28T11:33:59.470Z,1.80
2023-03-28T11:36:42.017Z,2.30
2023-03-28T11:39:42.607Z,2.00
2023-03-28T11:42:26.616Z,1.60
2023-03-28T11:45:41.920Z,1.70
2023-03-28T11:48:27.442Z,2.10
2023-03-28T11:51:16.159Z,1.80
2023-03-28T11:54:01.546Z,1.70
2023-03-28T11:56:52.748Z,2.20
2023-03-28T11:59:41.214Z,1.70
2023-03-28T12:02:32.114Z,1.90
2023-03-28T12:05:22.163Z,1.80
2023-03-28T12:08:06.053Z,2.90
2023-03-28T12:10:36.009Z,1.50
2023-03-28T12:13:20.242Z,1.30
2023-03-28T12:16:23.327Z,2.00
2023-03-28T12:19:00.921Z,1.80
2023-03-28T12:21:42.724Z,2.20
2023-03-28T12:24:33.499Z,1.40
2023-03-28T12:27:25.058Z,2.10
2023-03-28T12:30:13.161Z,1.80
2023-03-28T12:33:00.959Z,2.50
2023-03-28T12:36:13.227Z,1.90
2023-03-28T12:39:02.848Z,1.80
2023-03-28T12:41:39.864Z,1.90
2023-03-28T12:44:22.394Z,1.70
2023-03-28T12:47:30.771Z,2.20
2023-03-28T12:50:20.201Z,1.70
2023-03-28T12:52:47.784Z,1.90
2023-03-28T12:55:27.571Z,2.10
2023-03-28T12:58:33.049Z,2.00
2023-03-28T13:01:40.291Z,2.10
2023-03-28T13:04:35.460Z,2.30
2023-03-28T13:07:35.205Z,1.90
2023-03-28T13:10:11.926Z,2.00
2023-03-28T13:12:54.774Z,1.80
2023-03-28T13:18:22.003Z,1.20
2023-03-28T13:20:51.574Z,1.70
2023-03-28T13:23:28.708Z,1.40
2023-03-28T13:25:58.337Z,2.30
2023-03-28T13:28:37.453Z,1.90
2023-03-28T13:31:04.337Z,1.30
2023-03-28T13:33:45.356Z,1.90
2023-03-28T13:36:17.834Z,2.10
2023-03-28T13:38:58.707Z,2.00
2023-03-28T13:41:40.859Z,1.80
2023-03-28T13:44:18.285Z,1.90
2023-03-28T13:46:48.590Z,1.80
2023-03-28T13:49:21.209Z,1.90
2023-03-28T13:51:54.749Z,2.20
2023-03-28T13:54:23.387Z,2.10
2023-03-28T13:56:54.262Z,1.20
2023-03-28T13:59:34.848Z,1.80
2023-03-28T14:02:13.071Z,1.40
2023-03-28T14:04:50.328Z,2.00
2023-03-28T14:07:23.538Z,2.40
2023-03-28T14:09:50.710Z,2.30
2023-03-28T14:12:20.131Z,2.30
2023-03-28T14:14:51.140Z,1.90
2023-03-28T14:17:22.843Z,2.50
2023-03-28T14:19:57.627Z,1.80
2023-03-28T14:22:29.964Z,2.40
2023-03-28T14:25:14.816Z,1.70
2023-03-28T14:27:45.014Z,1.70
2023-03-28T14:30:15.579Z,1.30
2023-03-28T14:33:06.883Z,2.30
2023-03-28T14:35:35.796Z,2.10
2023-03-28T14:38:06.325Z,1.80
2023-03-28T14:40:37.049Z,1.80
2023-03-28T14:43:22.073Z,1.80
2023-03-28T14:45:53.491Z,2.20
2023-03-28T14:48:26.744Z,2.20
2023-03-28T14:50:55.088Z,1.30
2023-03-28T14:53:27.821Z,2.20
2023-03-28T14:56:01.675Z,1.30
2023-03-28T14:58:30.797Z,1.90
2023-03-28T15:01:01.349Z,3.10
2023-03-28T15:03:35.330Z,2.90
2023-03-28T15:06:03.318Z,2.20
2023-03-28T15:08:34.810Z,1.30
2023-03-28T15:11:10.887Z,2.90
2023-03-28T15:13:40.820Z,2.90
2023-03-28T15:16:09.154Z,1.90
2023-03-28T15:18:44.147Z,2.70
2023-03-28T15:21:14.255Z,1.80
2023-03-28T15:23:48.676Z,1.80
2023-03-28T15:26:36.454Z,2.40
2023-03-28T15:29:07.993Z,2.60
2023-03-28T15:31:41.512Z,2.10
2023-03-28T15:34:29.733Z,4.50
2023-03-28T15:37:03.509Z,4.30
2023-03-28T15:39:36.931Z,4.00
2023-03-28T15:42:40.116Z,3.50
2023-03-28T15:45:35.638Z,2.70
2023-03-28T15:48:03.769Z,3.60
2023-03-28T15:50:35.555Z,2.50
2023-03-28T15:53:08.878Z,2.40
2023-03-28T15:55:36.280Z,5.00
2023-03-28T15:58:05.721Z,6.90
2023-03-28T16:00:40.330Z,6.70
2023-03-28T16:03:34.789Z,4.20
2023-03-28T16:06:30.826Z,2.70
2023-03-28T16:09:22.138Z,5.40
2023-03-28T16:12:03.659Z,4.10
2023-03-28T16:14:54.186Z,4.30
2023-03-28T16:17:33.151Z,3.20
2023-03-28T16:20:22.258Z,3.20
2023-03-28T16:22:50.935Z,2.40
2023-03-28T16:25:18.703Z,2.20
2023-03-28T16:27:45.863Z,1.70
2023-03-28T16:30:36.795Z,2.50
2023-03-28T16:33:07.599Z,2.40
2023-03-28T16:35:35.179Z,2.60
2023-03-28T16:38:02.895Z,2.30
2023-03-28T16:40:29.744Z,2.80
2023-03-28T16:43:05.079Z,2.70
2023-03-28T16:45:33.341Z,2.60
2023-03-28T16:48:01.329Z,1.50
2023-03-28T16:50:29.951Z,2.90
2023-03-28T16:52:56.956Z,2.50
2023-03-28T16:55:24.690Z,2.30
2023-03-28T16:58:03.381Z,2.30
2023-03-28T17:00:44.440Z,2.10
2023-03-28T17:03:16.563Z,2.30
2023-03-28T17:05:44.647Z,2.50
2023-03-28T17:08:12.902Z,1.60
2023-03-28T17:10:42.852Z,2.50
2023-03-28T17:13:10.543Z,2.50
2023-03-28T17:15:38.910Z,2.60
2023-03-28T17:18:06.067Z,2.70
2023-03-28T17:20:33.844Z,2.70
2023-03-28T17:23:01.210Z,2.60
2023-03-28T17:25:28.323Z,2.20
2023-03-28T17:27:55.336Z,2.30
2023-03-28T17:30:22.308Z,2.10
2023-03-28T17:32:50.886Z,1.90
2023-03-28T17:35:18.265Z,2.80
2023-03-28T17:37:45.176Z,2.90
2023-03-28T17:40:13.048Z,2.80
2023-03-28T17:42:40.177Z,2.10
2023-03-28T17:45:07.790Z,3.10
2023-03-28T17:47:35.380Z,3.10
2023-03-28T17:50:03.274Z,2.80
2023-03-28T17:52:31.634Z,2.70
2023-03-28T17:54:58.724Z,2.70
2023-03-28T17:57:29.577Z,2.00
2023-03-28T17:59:57.136Z,2.40
2023-03-28T18:02:24.554Z,2.80
2023-03-28T18:05:04.869Z,2.70
2023-03-28T18:07:32.572Z,2.80
2023-03-28T18:10:01.138Z,2.90
2023-03-28T18:12:28.521Z,2.70
2023-03-28T18:14:58.296Z,3.10
2023-03-28T18:17:27.525Z,3.00
2023-03-28T18:19:54.485Z,3.80
2023-03-28T18:22:22.001Z,3.10
2023-03-28T18:24:49.202Z,3.10
2023-03-28T18:27:16.440Z,2.60
2023-03-28T18:29:43.792Z,2.30
2023-03-28T18:32:11.228Z,2.20
2023-03-28T18:34:39.425Z,2.60
2023-03-28T18:37:06.496Z,1.60
2023-03-28T18:39:36.810Z,2.20
2023-03-28T18:42:05.770Z,2.80
2023-03-28T18:44:35.298Z,2.60
2023-03-28T18:47:04.673Z,1.90
2023-03-28T18:49:32.402Z,1.70
2023-03-28T18:52:06.355Z,2.00
2023-03-28T18:54:34.730Z,2.00
2023-03-28T18:57:02.830Z,2.40
2023-03-28T18:59:30.515Z,2.50
2023-03-28T19:02:01.528Z,2.30
2023-03-28T19:04:28.984Z,2.20
2023-03-28T19:06:57.005Z,2.50
2023-03-28T19:09:24.452Z,1.40
2023-03-28T19:11:51.984Z,2.00
2023-03-28T19:14:19.409Z,1.80
2023-03-28T19:16:46.703Z,2.40
2023-03-28T19:19:14.020Z,2.70
2023-03-28T19:21:41.240Z,3.40
2023-03-28T19:24:08.672Z,3.30
2023-03-28T19:26:36.532Z,3.00
2023-03-28T19:29:03.800Z,2.70
2023-03-28T19:31:31.964Z,3.10
2023-03-28T19:33:59.533Z,2.80
2023-03-28T19:36:29.396Z,2.30
2023-03-28T19:38:56.455Z,2.90
2023-03-28T19:41:24.433Z,2.40
2023-03-28T19:43:51.433Z,2.30
2023-03-28T19:46:23.068Z,3.00
2023-03-28T19:48:53.442Z,2.60
2023-03-28T19:51:20.448Z,3.40
2023-03-28T19:53:47.759Z,2.70
2023-03-28T19:56:18.253Z,1.90
2023-03-28T19:58:46.543Z,3.30
2023-03-28T20:01:13.951Z,1.90
2023-03-28T20:03:41.579Z,2.60
2023-03-28T20:06:12.338Z,2.90
2023-03-28T20:08:39.644Z,3.20
2023-03-28T20:11:09.130Z,2.40
2023-03-28T20:13:36.052Z,3.20
2023-03-28T20:16:05.973Z,2.00
2023-03-28T20:18:34.291Z,2.80
2023-03-28T20:21:04.473Z,3.30
2023-03-28T20:23:32.648Z,3.50
2023-03-28T20:26:01.090Z,3.70
2023-03-28T20:28:31.973Z,4.00
2023-03-28T20:30:59.310Z,3.60
2023-03-28T20:33:26.434Z,3.50
2023-03-28T20:35:57.879Z,3.30
2023-03-28T20:38:25.589Z,3.30
2023-03-28T20:40:52.518Z,1.90
2023-03-28T20:43:20.202Z,2.10
2023-03-28T20:45:55.586Z,2.60
2023-03-28T20:48:34.483Z,1.80
2023-03-28T20:51:13.899Z,2.70
2023-03-28T20:53:43.021Z,2.00
2023-03-28T20:56:12.821Z,2.60
2023-03-28T20:58:40.217Z,2.70
2023-03-28T21:01:11.438Z,1.50
2023-03-28T21:03:53.982Z,1.30
2023-03-28T21:06:28.711Z,2.10
2023-03-28T21:09:01.273Z,3.10
2023-03-28T21:11:30.829Z,2.00
2023-03-28T21:13:59.350Z,3.40
2023-03-28T21:16:27.994Z,3.00
2023-03-28T21:18:55.375Z,2.70
2023-03-28T21:21:23.228Z,3.10
2023-03-28T21:23:52.473Z,1.90
2023-03-28T21:26:21.974Z,1.80
2023-03-28T21:28:49.491Z,2.10
2023-03-28T21:31:20.326Z,2.20
2023-03-28T21:33:48.513Z,1.50
2023-03-28T21:36:17.740Z,1.00
2023-03-28T21:38:46.473Z,2.80
2023-03-28T21:41:14.084Z,2.50
2023-03-28T21:43:41.545Z,1.60
2023-03-28T21:46:10.675Z,1.50
2023-03-28T21:48:38.054Z,2.20
2023-03-28T21:51:05.843Z,2.70
2023-03-28T21:53:36.094Z,2.40
2023-03-28T21:56:07.372Z,2.50
2023-03-28T21:58:34.742Z,2.30
2023-03-28T22:01:03.545Z,1.50
2023-03-28T22:03:31.206Z,1.70
2023-03-28T22:05:58.540Z,2.00
2023-03-28T22:08:25.579Z,2.40
2023-03-28T22:10:57.719Z,1.40
2023-03-28T22:13:24.803Z,2.90
2023-03-28T22:15:52.041Z,2.40
2023-03-28T22:18:20.044Z,1.60
2023-03-28T22:20:52.563Z,3.30
2023-03-28T22:23:21.209Z,3.10
2023-03-28T22:25:48.879Z,2.30
2023-03-28T22:28:16.366Z,2.20
2023-03-28T22:30:43.422Z,1.60
2023-03-28T22:33:12.990Z,2.40
2023-03-28T22:35:40.063Z,1.50
2023-03-28T22:38:07.057Z,2.60
2023-03-28T22:40:34.236Z,2.40
2023-03-28T22:43:02.632Z,2.70
2023-03-28T22:45:30.383Z,2.80
2023-03-28T22:47:59.495Z,2.60
2023-03-28T22:50:27.728Z,2.70
2023-03-28T22:52:55.251Z,1.80
2023-03-28T22:55:23.790Z,2.60
2023-03-28T22:57:51.904Z,2.40
2023-03-28T23:00:22.501Z,2.20
2023-03-28T23:02:51.093Z,2.80
2023-03-28T23:05:19.313Z,2.70
2023-03-28T23:07:48.023Z,2.90
2023-03-28T23:10:17.450Z,2.80
2023-03-28T23:12:44.870Z,1.60
2023-03-28T23:15:11.836Z,2.60
2023-03-28T23:17:39.360Z,2.20
2023-03-28T23:20:13.965Z,1.50
2023-03-28T23:22:43.290Z,1.50
2023-03-28T23:25:14.129Z,2.10
2023-03-28T23:27:42.083Z,1.30
2023-03-28T23:30:12.428Z,1.50
2023-03-28T23:32:39.876Z,2.30
2023-03-28T23:35:07.424Z,1.80
2023-03-28T23:37:37.570Z,2.80
2023-03-28T23:40:09.793Z,2.50
2023-03-28T23:42:36.631Z,2.50
2023-03-28T23:45:04.153Z,2.40
2023-03-28T23:47:31.102Z,2.10
2023-03-28T23:49:58.017Z,1.70
2023-03-28T23:52:24.877Z,1.60
2023-03-28T23:54:51.897Z,1.20
2023-03-28T23:57:18.945Z,1.60
2023-03-28T23:59:46.061Z,1.90
